Time;durP1;ratioP1;P1;durP2;ratioP2;P2;SDS_P1;SDS_P2;PMS_P1;PMS_P2;Temp;Humidity;BMP_temperature;BMP_pressure;BME280_temperature;BME280_humidity;BME280_pressure;Samples;Min_cycle;Max_cycle;Signal;HPM_P1;HPM_P2
2022/07/25 00:01:55;;;;;;;6.72;3.15;;;;;;;18.96;53.93;100945.87;1687657;82;27675;-67
2022/07/25 00:04:22;;;;;;;7.62;3.10;;;;;;;18.94;54.00;100945.98;1683852;82;26527;-67
2022/07/25 00:06:49;;;;;;;7.50;3.25;;;;;;;18.95;54.12;100948.21;1695321;82;98890;-67
2022/07/25 00:09:15;;;;;;;4.85;3.30;;;;;;;18.94;54.15;100944.63;1687708;82;25731;-67
2022/07/25 00:11:41;;;;;;;3.85;2.90;;;;;;;18.89;54.25;100946.81;1693585;82;27519;-67
2022/07/25 00:14:07;;;;;;;7.72;3.65;;;;;;;18.88;54.38;100945.56;1693650;82;98674;-67
2022/07/25 00:16:33;;;;;;;5.22;3.20;;;;;;;18.90;54.45;100940.89;1690490;82;26361;-67
2022/07/25 00:18:59;;;;;;;10.43;3.65;;;;;;;18.92;54.52;100943.00;1688585;82;27916;-67
2022/07/25 00:21:25;;;;;;;3.15;2.85;;;;;;;18.89;54.57;100940.52;1689797;82;25881;-67
2022/07/25 00:23:51;;;;;;;4.37;3.10;;;;;;;18.88;54.63;100939.64;1694673;82;28369;-67
2022/07/25 00:26:17;;;;;;;4.92;3.17;;;;;;;18.86;54.70;100941.61;1694597;82;26072;-68
2022/07/25 00:28:43;;;;;;;4.92;3.22;;;;;;;18.79;54.69;100938.96;1690881;82;26316;-67
2022/07/25 00:31:09;;;;;;;6.65;3.83;;;;;;;18.73;54.73;100947.06;1693375;81;99006;-67
2022/07/25 00:33:36;;;;;;;7.12;4.00;;;;;;;18.65;54.94;100945.88;1693198;82;25863;-67
2022/07/25 00:36:02;;;;;;;7.75;3.98;;;;;;;18.58;55.08;100939.99;1698271;82;27374;-67
2022/07/25 00:38:28;;;;;;;4.90;3.62;;;;;;;18.55;55.18;100943.41;1696449;82;25820;-67
2022/07/25 00:40:54;;;;;;;6.35;4.05;;;;;;;18.52;55.32;100951.29;1730597;81;25825;-68
2022/07/25 00:43:20;;;;;;;7.12;3.45;;;;;;;18.52;55.41;100936.84;1728318;81;27534;-67
2022/07/25 00:45:46;;;;;;;6.10;3.50;;;;;;;18.48;55.51;100937.56;1718940;80;98774;-67
2022/07/25 00:48:12;;;;;;;6.58;3.65;;;;;;;18.49;55.55;100936.09;1727285;81;29468;-67
2022/07/25 00:50:39;;;;;;;6.03;4.12;;;;;;;18.47;55.64;100939.89;1715208;81;27223;-68
2022/07/25 00:53:05;;;;;;;5.95;4.03;;;;;;;18.44;55.78;100929.26;1725024;81;25804;-67
2022/07/25 00:55:33;;;;;;;9.43;3.87;;;;;;;18.41;55.83;100937.12;1726279;81;26423;-67
2022/07/25 00:58:00;;;;;;;8.63;4.20;;;;;;;18.38;55.94;100932.41;1723607;81;25695;-67
2022/07/25 01:00:26;;;;;;;7.65;4.25;;;;;;;18.36;56.05;100928.45;1720367;81;27455;-67
2022/07/25 01:02:52;;;;;;;10.03;4.65;;;;;;;18.31;56.09;100927.91;1728586;81;25957;-67
2022/07/25 01:05:18;;;;;;;5.03;3.77;;;;;;;18.25;56.11;100925.63;1728818;81;26034;-67
2022/07/25 01:07:46;;;;;;;6.97;4.10;;;;;;;18.19;56.39;100924.73;1719049;81;26360;-67
2022/07/25 01:10:12;;;;;;;5.55;4.00;;;;;;;18.14;56.35;100922.84;1731589;80;98595;-67
2022/07/25 01:12:54;;;;;;;6.42;4.08;;;;;;;18.06;56.55;100924.73;1731436;81;27858;-67
2022/07/25 01:15:24;;;;;;;7.75;4.08;;;;;;;18.06;56.67;100907.58;1729564;81;25925;-67
2022/07/25 01:17:50;;;;;;;6.92;4.20;;;;;;;17.99;56.70;100915.28;1729246;81;99000;-67
2022/07/25 01:20:22;;;;;;;6.85;4.22;;;;;;;17.95;56.92;100913.76;1726118;81;27782;-67
2022/07/25 01:22:49;;;;;;;8.25;4.15;;;;;;;17.93;56.96;100907.58;1726270;81;98769;-67
2022/07/25 01:25:16;;;;;;;7.55;4.47;;;;;;;17.87;57.03;100902.58;1729283;81;28161;-67
2022/07/25 01:27:43;;;;;;;7.78;5.05;;;;;;;17.87;57.19;100906.64;1726130;81;26486;-67
2022/07/25 01:30:12;;;;;;;7.50;4.33;;;;;;;17.87;57.38;100902.58;1719218;81;26803;-67
2022/07/25 01:32:39;;;;;;;7.78;4.80;;;;;;;17.87;57.37;100899.87;1704070;82;27239;-67
2022/07/25 01:35:07;;;;;;;7.03;4.75;;;;;;;17.83;57.51;100905.13;1709840;82;25756;-67
2022/07/25 01:37:35;;;;;;;9.23;4.83;;;;;;;17.82;57.55;100901.54;1710201;82;27471;-67
2022/07/25 01:40:03;;;;;;;11.40;5.03;;;;;;;17.78;57.62;100899.15;1701941;82;27245;-67
2022/07/25 01:42:28;;;;;;;10.82;4.83;;;;;;;17.72;57.73;100897.73;1698234;82;26566;-67
2022/07/25 01:44:54;;;;;;;7.58;4.55;;;;;;;17.64;57.79;100903.27;1709006;82;25825;-66
2022/07/25 01:47:21;;;;;;;13.72;4.72;;;;;;;17.57;58.09;100906.88;1702624;82;25716;-66
2022/07/25 01:49:47;;;;;;;5.75;4.67;;;;;;;17.57;58.13;100899.23;1706117;82;27512;-66
2022/07/25 01:52:13;;;;;;;8.18;5.25;;;;;;;17.56;58.35;100894.78;1642678;84;26418;-69
2022/07/25 01:54:40;;;;;;;5.70;4.47;;;;;;;17.58;58.40;100889.64;1648652;84;98719;-68
2022/07/25 01:57:07;;;;;;;5.70;4.60;;;;;;;17.58;58.57;100893.71;1647330;84;27099;-66
2022/07/25 01:59:39;;;;;;;8.33;4.60;;;;;;;17.63;58.60;100890.69;1654571;84;25728;-66
2022/07/25 02:02:07;;;;;;;7.05;4.60;;;;;;;17.61;58.66;100896.21;1652020;84;98484;-67
2022/07/25 02:04:34;;;;;;;7.67;4.45;;;;;;;17.57;58.67;100895.17;1649694;84;25742;-66
2022/07/25 02:07:00;;;;;;;6.05;4.70;;;;;;;17.53;58.75;100893.16;1686448;83;26535;-69
2022/07/25 02:09:27;;;;;;;7.78;5.25;;;;;;;17.47;58.93;100892.22;1656161;84;25631;-69
2022/07/25 02:11:53;;;;;;;9.93;5.15;;;;;;;17.47;59.00;100893.58;1663251;84;25723;-69
2022/07/25 02:14:21;;;;;;;6.25;5.00;;;;;;;17.43;59.01;100889.34;1658730;83;27345;-69
2022/07/25 02:16:48;;;;;;;9.65;5.20;;;;;;;17.36;59.11;100892.95;1668783;84;25938;-69
2022/07/25 02:19:14;;;;;;;8.05;5.45;;;;;;;17.35;59.29;100884.92;1671080;84;25819;-69
2022/07/25 02:21:41;;;;;;;10.40;5.28;;;;;;;17.35;59.41;100886.28;1654275;84;25720;-69
2022/07/25 02:24:07;;;;;;;7.25;4.53;;;;;;;17.34;59.44;100879.98;1651387;84;25855;-69
2022/07/25 02:26:33;;;;;;;8.08;4.70;;;;;;;17.28;59.47;100881.76;1669159;84;98808;-69
2022/07/25 02:28:59;;;;;;;10.80;5.42;;;;;;;17.25;59.65;100884.67;1665846;84;25726;-69
2022/07/25 02:31:25;;;;;;;6.92;5.12;;;;;;;17.21;59.75;100880.43;1702730;81;25781;-69
2022/07/25 02:33:50;;;;;;;12.88;5.08;;;;;;;17.23;59.91;100883.04;1694791;82;26800;-69
2022/07/25 02:36:16;;;;;;;7.08;4.75;;;;;;;17.23;60.02;100877.63;1694479;82;26593;-69
2022/07/25 02:38:43;;;;;;;6.87;4.90;;;;;;;17.19;60.05;100880.53;1702326;82;29612;-69
2022/07/25 02:41:10;;;;;;;7.37;4.70;;;;;;;17.16;60.07;100880.74;1696232;82;26959;-69
2022/07/25 02:43:36;;;;;;;10.15;5.45;;;;;;;17.12;60.18;100880.56;1692795;82;26477;-71
2022/07/25 02:46:02;;;;;;;7.55;5.37;;;;;;;17.08;60.24;100880.87;1701913;82;98840;-68
2022/07/25 02:48:31;;;;;;;6.92;4.85;;;;;;;17.06;60.41;100880.10;1706597;82;25326;-69
2022/07/25 02:50:57;;;;;;;10.88;5.37;;;;;;;17.03;60.46;100881.66;1692616;82;99058;-71
2022/07/25 02:53:23;;;;;;;13.03;5.33;;;;;;;16.97;60.58;100874.81;1696184;82;27803;-69
2022/07/25 02:55:49;;;;;;;7.10;5.80;;;;;;;16.97;60.66;100875.30;1700658;82;25767;-69
2022/07/25 02:58:15;;;;;;;6.83;4.80;;;;;;;16.98;60.81;100881.97;1701928;82;27896;-69
2022/07/25 03:00:41;;;;;;;11.80;6.20;;;;;;;16.97;60.82;100877.52;1700647;82;25348;-69
2022/07/25 03:03:07;;;;;;;9.08;5.28;;;;;;;16.98;60.89;100877.91;1692715;82;27478;-69
2022/07/25 03:05:33;;;;;;;10.05;6.33;;;;;;;16.93;60.95;100875.98;1695759;82;25857;-69
2022/07/25 03:07:59;;;;;;;9.75;5.92;;;;;;;16.94;61.14;100875.02;1702399;82;26761;-69
2022/07/25 03:10:24;;;;;;;8.55;6.12;;;;;;;16.94;61.17;100867.37;1700216;82;98808;-69
2022/07/25 03:12:52;;;;;;;11.73;6.50;;;;;;;16.96;61.22;100871.72;1701397;82;26543;-69
2022/07/25 03:15:19;;;;;;;10.03;5.33;;;;;;;16.95;61.26;100873.17;1699443;82;28296;-70
2022/07/25 03:17:45;;;;;;;11.55;6.15;;;;;;;16.93;61.26;100866.51;1689027;82;98803;-70
2022/07/25 03:20:11;;;;;;;6.72;5.83;;;;;;;16.90;61.35;100864.00;1698918;82;25750;-70
2022/07/25 03:22:37;;;;;;;9.80;6.22;;;;;;;16.85;61.37;100867.02;1688677;83;26532;-70
2022/07/25 03:25:04;;;;;;;9.58;6.47;;;;;;;16.83;61.59;100865.38;1690515;82;25835;-70
2022/07/25 03:27:30;;;;;;;9.23;6.97;;;;;;;16.87;61.65;100869.62;1696165;82;27416;-69
2022/07/25 03:29:58;;;;;;;11.05;6.75;;;;;;;16.89;61.72;100871.74;1695433;82;27151;-69
2022/07/25 03:32:24;;;;;;;12.28;6.78;;;;;;;16.93;61.71;100872.41;1697308;82;26596;-69
2022/07/25 03:34:50;;;;;;;10.53;7.05;;;;;;;16.87;61.74;100873.20;1692693;82;25945;-69
2022/07/25 03:37:16;;;;;;;11.03;6.55;;;;;;;16.88;61.90;100876.77;1690988;82;98846;-69
2022/07/25 03:39:42;;;;;;;11.10;7.22;;;;;;;16.89;61.88;100878.51;1700796;82;27430;-69
2022/07/25 03:42:08;;;;;;;9.78;6.25;;;;;;;16.88;61.95;100878.13;1699403;82;99012;-69
2022/07/25 03:44:34;;;;;;;10.88;6.72;;;;;;;16.89;62.03;100874.45;1699815;82;27052;-69
2022/07/25 03:47:00;;;;;;;11.95;6.53;;;;;;;16.89;62.07;100874.45;1695940;82;25949;-69
2022/07/25 03:49:26;;;;;;;9.15;5.55;;;;;;;16.91;62.14;100868.94;1720042;81;98773;-69
2022/07/25 03:51:52;;;;;;;8.03;6.42;;;;;;;16.96;62.24;100864.95;1723414;81;27494;-69
2022/07/25 03:54:17;;;;;;;8.95;5.90;;;;;;;16.99;62.23;100863.87;1735617;81;98865;-70
2022/07/25 03:56:48;;;;;;;8.53;6.62;;;;;;;17.01;62.22;100864.64;1725529;81;26965;-70
2022/07/25 03:59:18;;;;;;;7.87;6.30;;;;;;;16.96;62.24;100852.77;1734154;81;26220;-70
2022/07/25 04:01:46;;;;;;;9.35;6.60;;;;;;;16.94;62.43;100845.72;1722447;81;98495;-70
2022/07/25 04:04:13;;;;;;;7.90;5.47;;;;;;;16.93;62.42;100848.04;1712083;81;28007;-70
2022/07/25 04:06:40;;;;;;;12.37;6.70;;;;;;;16.94;62.52;100846.58;1713364;81;25746;-70
2022/07/25 04:09:08;;;;;;;11.38;6.30;;;;;;;16.96;62.54;100844.64;1717180;81;25803;-70
2022/07/25 04:11:37;;;;;;;10.43;6.65;;;;;;;16.99;62.55;100844.92;1723243;81;25747;-70
2022/07/25 04:14:04;;;;;;;6.95;6.03;;;;;;;16.98;62.64;100849.47;1724894;80;25734;-70
2022/07/25 04:16:32;;;;;;;7.00;6.20;;;;;;;16.99;62.70;100840.86;1727057;80;27453;-70
2022/07/25 04:18:58;;;;;;;11.35;7.03;;;;;;;17.07;62.77;100846.63;1735789;81;25772;-70
2022/07/25 04:21:24;;;;;;;9.35;5.70;;;;;;;17.11;62.75;100843.61;1726525;80;25925;-70
2022/07/25 04:23:52;;;;;;;15.72;7.33;;;;;;;17.11;62.75;100846.33;1718229;80;25725;-70
2022/07/25 04:26:18;;;;;;;9.98;6.53;;;;;;;17.14;62.89;100846.60;1724828;80;28247;-70
2022/07/25 04:28:44;;;;;;;12.75;6.17;;;;;;;17.18;62.88;100848.13;1735064;81;29577;-70
2022/07/25 04:31:10;;;;;;;15.40;6.70;;;;;;;17.20;62.92;100848.89;1721055;80;27108;-70
2022/07/25 04:33:38;;;;;;;10.55;6.15;;;;;;;17.27;62.94;100853.41;1722457;81;25787;-70
2022/07/25 04:36:05;;;;;;;13.40;6.72;;;;;;;17.31;62.94;100850.87;1718441;81;26953;-70
2022/07/25 04:38:33;;;;;;;12.05;6.92;;;;;;;17.34;62.92;100839.34;1715545;81;99077;-70
2022/07/25 04:40:59;;;;;;;14.03;6.35;;;;;;;17.36;62.88;100832.47;1724399;80;27469;-70
2022/07/25 04:43:25;;;;;;;8.98;6.80;;;;;;;17.39;62.90;100826.84;1728755;80;26441;-70
2022/07/25 04:45:51;;;;;;;9.78;7.10;;;;;;;17.42;62.97;100816.66;1723659;80;25797;-70
2022/07/25 04:48:18;;;;;;;15.98;6.47;;;;;;;17.50;62.98;100824.25;1718554;81;25748;-70
2022/07/25 04:50:44;;;;;;;8.33;6.35;;;;;;;17.55;63.00;100821.23;1725732;80;26667;-70
2022/07/25 04:53:11;;;;;;;11.35;6.50;;;;;;;17.64;63.02;100821.45;1723146;80;98545;-70
2022/07/25 04:55:41;;;;;;;15.83;6.70;;;;;;;17.71;62.93;100822.80;1729167;80;25752;-70
2022/07/25 04:58:05;;;;;;;9.60;6.08;;;;;;;17.76;62.90;100817.92;1718921;80;26439;-71
2022/07/25 05:00:33;;;;;;;12.85;6.90;;;;;;;17.81;62.94;100812.17;1721928;81;27729;-70
2022/07/25 05:03:03;;;;;;;13.55;6.62;;;;;;;17.87;62.89;100815.80;1726781;81;26565;-70
2022/07/25 05:05:29;;;;;;;13.78;6.33;;;;;;;17.90;62.84;100810.16;1726585;81;27483;-70
2022/07/25 05:07:57;;;;;;;8.65;6.37;;;;;;;17.92;62.72;100808.70;1717261;80;25933;-70
2022/07/25 05:10:25;;;;;;;9.80;5.95;;;;;;;17.95;62.79;100807.13;1719836;80;25829;-70
2022/07/25 05:12:50;;;;;;;12.73;6.45;;;;;;;18.01;62.76;100803.48;1717759;80;25855;-70
2022/07/25 05:15:16;;;;;;;13.58;6.10;;;;;;;18.06;62.76;100797.73;1725049;80;26026;-70
2022/07/25 05:17:42;;;;;;;9.73;5.85;;;;;;;18.14;62.70;100796.69;1723281;81;27410;-70
2022/07/25 05:20:10;;;;;;;12.70;6.50;;;;;;;18.21;62.64;100797.94;1721370;80;25823;-70
2022/07/25 05:22:35;;;;;;;11.03;5.62;;;;;;;18.25;62.57;100802.17;1716262;81;25724;-70
2022/07/25 05:25:04;;;;;;;9.35;5.87;;;;;;;18.32;62.56;100804.81;1728530;80;26231;-70
2022/07/25 05:27:30;;;;;;;10.55;5.72;;;;;;;18.40;62.45;100801.53;1717054;81;25819;-70
2022/07/25 05:29:56;;;;;;;11.08;6.10;;;;;;;18.44;62.41;100795.77;1723444;81;98953;-70
2022/07/25 05:32:22;;;;;;;10.85;6.30;;;;;;;18.52;62.37;100798.41;1714169;80;25790;-70
2022/07/25 05:34:48;;;;;;;11.35;6.35;;;;;;;18.56;62.26;100795.84;1676434;83;25855;-70
2022/07/25 05:37:13;;;;;;;16.45;6.83;;;;;;;18.62;62.20;100784.56;1689139;82;26032;-70
2022/07/25 05:39:39;;;;;;;9.45;5.42;;;;;;;18.66;62.12;100777.43;1696768;82;26457;-70
2022/07/25 05:42:06;;;;;;;9.13;5.35;;;;;;;18.73;62.09;100776.48;1693718;82;27535;-70
2022/07/25 05:44:34;;;;;;;10.20;6.55;;;;;;;18.78;62.05;100766.14;1696907;82;27098;-70
2022/07/25 05:46:59;;;;;;;12.43;5.97;;;;;;;18.87;62.00;100770.01;1690838;82;25938;-70
2022/07/25 05:49:25;;;;;;;11.60;5.50;;;;;;;18.96;61.97;100758.44;1686136;82;98910;-70
2022/07/25 05:51:51;;;;;;;16.82;6.37;;;;;;;19.02;61.88;100755.26;1696114;82;25801;-70
2022/07/25 05:54:17;;;;;;;11.70;5.25;;;;;;;19.14;61.82;100759.25;1694883;82;28067;-70
2022/07/25 05:56:43;;;;;;;15.93;5.65;;;;;;;19.23;61.72;100753.59;1686625;82;98904;-69
2022/07/25 05:59:09;;;;;;;15.05;5.87;;;;;;;19.32;61.66;100757.45;1691834;82;25767;-71
2022/07/25 06:01:34;;;;;;;14.40;4.87;;;;;;;19.40;61.56;100761.30;1694046;82;99387;-70
2022/07/25 06:04:01;;;;;;;7.72;4.05;;;;;;;19.50;61.46;100752.42;1689662;82;26539;-71
2022/07/25 06:06:27;;;;;;;14.00;4.12;;;;;;;19.63;61.36;100751.86;1692359;82;29485;-69
2022/07/25 06:08:52;;;;;;;6.28;3.72;;;;;;;19.74;61.19;100744.58;1688760;82;27208;-69
2022/07/25 06:11:24;;;;;;;11.73;4.92;;;;;;;19.84;61.06;100739.27;1690691;82;26483;-69
2022/07/25 06:13:50;;;;;;;8.05;4.08;;;;;;;19.95;60.94;100744.71;1685868;82;26286;-70
2022/07/25 06:16:15;;;;;;;9.95;4.37;;;;;;;20.08;60.80;100741.86;1703154;82;25745;-72
2022/07/25 06:18:41;;;;;;;11.08;4.20;;;;;;;20.20;60.65;100734.55;1704872;82;28079;-70
2022/07/25 06:21:07;;;;;;;15.72;4.97;;;;;;;20.34;60.49;100737.86;1680532;83;98813;-72
2022/07/25 06:23:33;;;;;;;10.93;4.37;;;;;;;20.49;60.34;100734.90;1705153;82;26001;-73
2022/07/25 06:25:59;;;;;;;21.52;3.30;;;;;;;20.64;60.14;100730.89;1699958;82;25850;-72
2022/07/25 06:28:25;;;;;;;6.47;3.52;;;;;;;20.80;59.92;100720.93;1703609;82;26033;-70
2022/07/25 06:30:50;;;;;;;7.33;3.10;;;;;;;20.94;59.68;100723.31;1717689;81;27480;-72
2022/07/25 06:33:16;;;;;;;17.52;3.90;;;;;;;21.10;59.43;100729.67;1713645;81;98602;-70
2022/07/25 06:35:42;;;;;;;10.72;3.05;;;;;;;21.23;59.17;100724.93;1706370;82;25759;-70
2022/07/25 06:38:08;;;;;;;14.90;3.67;;;;;;;21.34;58.98;100715.32;1708402;82;98958;-71
2022/07/25 06:40:36;;;;;;;10.35;2.77;;;;;;;21.47;58.72;100708.30;1704167;82;26316;-69
2022/07/25 06:43:02;;;;;;;5.03;2.70;;;;;;;21.60;58.30;100708.44;1707030;82;29589;-71
2022/07/25 06:45:29;;;;;;;7.10;2.67;;;;;;;21.71;57.99;100706.99;1704870;82;25863;-71
2022/07/25 06:47:55;;;;;;;9.55;2.98;;;;;;;21.82;57.67;100698.34;1697971;82;25879;-71
2022/07/25 06:50:21;;;;;;;8.20;2.45;;;;;;;21.92;57.28;100700.61;1707770;82;25798;-71
2022/07/25 06:52:48;;;;;;;6.85;2.30;;;;;;;22.02;57.04;100690.63;1707521;82;25695;-71
2022/07/25 06:55:14;;;;;;;8.05;2.30;;;;;;;22.14;56.54;100694.98;1702523;82;27485;-70
2022/07/25 06:57:42;;;;;;;7.00;2.30;;;;;;;22.31;55.90;100688.84;1706164;82;25824;-72
2022/07/25 07:00:11;;;;;;;13.78;2.65;;;;;;;22.31;55.90;100688.84;1701479;83;26430;-70
2022/07/25 07:02:51;;;;;;;14.23;3.05;;;;;;;22.42;55.73;100684.26;1702603;83;26406;-71
2022/07/25 07:05:18;;;;;;;3.70;2.53;;;;;;;22.48;55.49;100683.19;1677965;83;26046;-71
2022/07/25 07:07:44;;;;;;;4.92;2.15;;;;;;;22.58;55.18;100676.37;1667825;84;27528;-72
2022/07/25 07:10:10;;;;;;;7.55;2.27;;;;;;;22.65;54.81;100673.42;1691919;83;25854;-71
2022/07/25 07:12:36;;;;;;;9.55;2.30;;;;;;;22.74;54.37;100676.66;1687976;82;26479;-71
2022/07/25 07:15:02;;;;;;;5.78;2.42;;;;;;;22.80;54.04;100680.22;1685161;83;25791;-71
2022/07/25 07:17:28;;;;;;;4.95;2.27;;;;;;;22.89;53.77;100677.98;1686064;83;25900;-71
2022/07/25 07:19:55;;;;;;;8.33;3.30;;;;;;;22.97;53.47;100674.02;1688349;84;27791;-72
2022/07/25 07:22:21;;;;;;;7.15;2.42;;;;;;;23.04;53.17;100670.70;1683663;83;27248;-70
2022/07/25 07:24:46;;;;;;;5.87;2.45;;;;;;;23.11;52.93;100666.38;1687577;83;26658;-70
2022/07/25 07:27:12;;;;;;;6.67;2.00;;;;;;;23.20;52.60;100662.77;1688550;83;25908;-69
2022/07/25 07:29:38;;;;;;;6.58;2.12;;;;;;;23.27;52.28;100665.27;1684786;83;25801;-70
2022/07/25 07:32:05;;;;;;;7.92;2.02;;;;;;;23.36;51.98;100667.11;1686610;82;98617;-69
2022/07/25 07:34:33;;;;;;;8.15;2.50;;;;;;;23.42;51.77;100659.65;1688268;83;25904;-69
2022/07/25 07:37:01;;;;;;;6.60;1.87;;;;;;;23.53;51.47;100661.34;1682604;83;98589;-69
2022/07/25 07:39:27;;;;;;;10.20;3.00;;;;;;;23.59;51.10;100656.17;1687439;83;25831;-69
2022/07/25 07:41:53;;;;;;;5.90;2.27;;;;;;;23.66;50.85;100652.83;1687525;83;99071;-72
2022/07/25 07:44:19;;;;;;;5.33;2.37;;;;;;;23.76;50.60;100660.49;1684307;82;27425;-69
2022/07/25 07:46:45;;;;;;;7.62;1.98;;;;;;;23.84;50.31;100653.75;1686818;83;26537;-71
2022/07/25 07:49:11;;;;;;;1.90;1.70;;;;;;;23.90;49.96;100648.54;1695080;83;98728;-70
2022/07/25 07:51:38;;;;;;;5.03;2.08;;;;;;;23.95;49.54;100647.58;1683208;84;25793;-72
2022/07/25 07:56:49;;;;;;;6.35;1.90;;;;;;;24.03;48.94;100652.28;1690245;82;27500;-70
2022/07/25 07:59:15;;;;;;;6.90;1.80;;;;;;;24.10;48.68;100647.06;1682806;83;25828;-65
2022/07/25 08:01:41;;;;;;;6.53;2.00;;;;;;;24.15;48.41;100644.72;1681498;82;98847;-62
2022/07/25 08:04:07;;;;;;;11.10;2.60;;;;;;;24.19;48.23;100643.40;1687857;83;25885;-64
2022/07/25 08:06:36;;;;;;;4.45;1.85;;;;;;;24.25;48.10;100636.80;1686813;83;99130;-63
2022/07/25 08:09:05;;;;;;;5.50;1.87;;;;;;;24.36;47.87;100634.88;1693417;83;28099;-63
2022/07/25 08:11:31;;;;;;;2.70;1.67;;;;;;;24.47;47.64;100637.39;1686771;82;26598;-63
2022/07/25 08:13:56;;;;;;;8.10;2.17;;;;;;;24.53;47.29;100633.52;1689534;83;99022;-62
2022/07/25 08:16:22;;;;;;;8.38;1.75;;;;;;;24.56;47.14;100625.49;1694900;82;26509;-62
2022/07/25 08:18:48;;;;;;;5.47;1.87;;;;;;;24.67;46.83;100635.36;1686058;82;25864;-62
2022/07/25 08:21:14;;;;;;;11.95;2.33;;;;;;;24.71;46.59;100626.66;1684798;83;27474;-61
2022/07/25 08:23:40;;;;;;;9.85;1.67;;;;;;;24.76;46.36;100623.44;1693754;83;27292;-62
2022/07/25 08:26:06;;;;;;;7.55;1.95;;;;;;;24.80;46.11;100621.59;1683097;82;25822;-62
2022/07/25 08:28:32;;;;;;;5.60;1.70;;;;;;;24.86;45.99;100618.22;1682470;83;26022;-62
2022/07/25 08:30:58;;;;;;;5.10;2.00;;;;;;;24.97;45.76;100616.27;1685237;84;108628;-62
2022/07/25 08:33:25;;;;;;;3.77;1.20;;;;;;;25.07;45.50;100617.03;1685430;83;27521;-62
2022/07/25 08:35:53;;;;;;;3.00;1.72;;;;;;;25.14;45.02;100614.00;1689826;82;25865;-62
2022/07/25 08:38:21;;;;;;;3.02;1.80;;;;;;;25.20;44.84;100611.98;1693213;83;98720;-62
2022/07/25 08:40:48;;;;;;;1.95;1.22;;;;;;;25.28;44.62;100616.66;1689190;84;25818;-62
2022/07/25 08:43:15;;;;;;;1.60;1.50;;;;;;;25.36;43.96;100611.22;1683653;82;99039;-63
2022/07/25 08:45:47;;;;;;;3.67;1.70;;;;;;;25.40;43.83;100607.99;1687464;82;26979;-62
2022/07/25 08:48:17;;;;;;;8.45;1.57;;;;;;;25.47;43.53;100620.04;1688341;83;26242;-62
2022/07/25 08:50:45;;;;;;;1.75;1.65;;;;;;;25.53;43.34;100616.64;1687871;83;25819;-62
2022/07/25 08:53:13;;;;;;;3.85;1.52;;;;;;;25.57;43.02;100615.80;1689240;82;26414;-62
2022/07/25 08:55:43;;;;;;;4.80;2.00;;;;;;;25.62;42.89;100611.19;1684918;83;25734;-62
2022/07/25 08:58:11;;;;;;;14.93;1.92;;;;;;;25.69;42.74;100610.40;1696825;82;28180;-62
2022/07/25 09:00:40;;;;;;;4.72;1.60;;;;;;;25.76;42.53;100606.48;1690958;83;25868;-62
2022/07/25 09:03:08;;;;;;;4.12;1.20;;;;;;;25.83;42.20;100601.53;1689108;83;25814;-62
2022/07/25 09:05:35;;;;;;;4.50;1.62;;;;;;;25.91;42.05;100603.45;1686751;83;25763;-62
2022/07/25 09:08:16;;;;;;;2.33;1.52;;;;;;;26.00;41.91;100594.21;1690773;83;25817;-62
2022/07/25 09:10:51;;;;;;;6.33;1.47;;;;;;;26.10;41.67;100589.40;1687374;82;27372;-65
2022/07/25 09:13:20;;;;;;;14.47;6.42;;;;;;;26.16;41.47;100581.00;1681530;84;25823;-65
2022/07/25 09:15:58;;;;;;;5.42;2.25;;;;;;;26.26;41.32;100587.72;1685196;82;26524;-63
2022/07/25 09:18:26;;;;;;;3.25;1.82;;;;;;;26.34;41.03;100587.76;1697202;83;27290;-62
2022/07/25 09:20:57;;;;;;;1.98;1.35;;;;;;;26.43;40.65;100586.73;1695625;83;25716;-62
2022/07/25 09:23:38;;;;;;;8.68;1.70;;;;;;;26.47;39.60;100583.48;1689948;83;27418;-62
2022/07/25 09:26:13;;;;;;;2.52;1.40;;;;;;;26.53;39.64;100582.80;1685691;83;25744;-65
2022/07/25 09:28:48;;;;;;;6.35;1.90;;;;;;;26.58;39.55;100568.53;1685892;82;26212;-63
2022/07/25 09:31:17;;;;;;;1.40;1.20;;;;;;;26.62;39.38;100569.91;1679606;84;26724;-63
2022/07/25 09:33:55;;;;;;;4.30;1.50;;;;;;;26.62;39.11;100559.43;1719907;82;25807;-62
2022/07/25 09:36:22;;;;;;;3.33;1.22;;;;;;;26.66;39.05;100557.54;1724660;81;27492;-62
2022/07/25 09:38:54;;;;;;;4.92;1.45;;;;;;;26.78;38.95;100564.92;1725266;81;26019;-63
2022/07/25 09:41:21;;;;;;;9.40;1.50;;;;;;;26.87;38.80;100557.00;1731279;81;98873;-62
2022/07/25 09:43:46;;;;;;;4.35;1.45;;;;;;;27.01;38.62;100552.72;1731617;81;27793;-62
2022/07/25 09:46:12;;;;;;;8.10;1.27;;;;;;;27.13;38.25;100554.06;1727310;81;26041;-62
2022/07/25 09:48:43;;;;;;;3.80;1.85;;;;;;;27.17;38.10;100554.06;1717141;81;98819;-62
2022/07/25 09:51:09;;;;;;;2.72;1.42;;;;;;;27.21;38.00;100552.67;1718177;81;26236;-62
2022/07/25 09:53:34;;;;;;;3.10;2.10;;;;;;;27.28;37.64;100550.07;1726544;81;26383;-61
2022/07/25 09:56:00;;;;;;;1.90;1.42;;;;;;;27.33;37.02;100547.12;1727305;81;26009;-62
2022/07/25 09:58:28;;;;;;;11.38;5.50;;;;;;;27.31;36.91;100543.70;1721551;81;25891;-62
2022/07/25 10:01:04;;;;;;;3.58;1.75;;;;;;;27.29;36.87;100543.02;1720045;81;98956;-62
2022/07/25 10:03:56;;;;;;;6.58;1.40;;;;;;;27.33;36.78;100537.50;1724009;81;25871;-62
2022/07/25 10:06:48;;;;;;;7.25;1.20;;;;;;;27.39;36.64;100539.53;1724579;81;26367;-62
2022/07/25 10:09:15;;;;;;;1.40;1.12;;;;;;;27.49;36.54;100536.58;1722483;81;25755;-62
2022/07/25 10:12:05;;;;;;;1.87;1.30;;;;;;;27.64;36.29;100533.96;1711941;81;25747;-62
2022/07/25 10:14:34;;;;;;;8.35;2.10;;;;;;;27.72;36.13;100529.79;1723800;82;28391;-62
2022/07/25 10:17:00;;;;;;;3.70;1.12;;;;;;;27.85;35.67;100531.44;1720621;81;25965;-62
2022/07/25 10:19:47;;;;;;;8.23;1.90;;;;;;;27.88;35.46;100524.19;1726357;81;25810;-62
2022/07/25 10:22:13;;;;;;;6.78;1.72;;;;;;;27.91;35.23;100529.33;1727446;81;26610;-63
2022/07/25 10:24:46;;;;;;;3.45;1.15;;;;;;;27.94;35.05;100519.33;1725983;81;25650;-63
2022/07/25 10:27:25;;;;;;;3.58;1.52;;;;;;;28.00;34.98;100507.58;1720628;81;98585;-63
2022/07/25 10:29:54;;;;;;;1.82;1.10;;;;;;;28.07;34.65;100509.08;1724937;81;25768;-65
2022/07/25 10:32:24;;;;;;;2.25;1.60;;;;;;;28.08;34.33;100515.79;1720206;81;98970;-63
2022/07/25 10:34:53;;;;;;;5.55;1.50;;;;;;;28.12;34.29;100503.36;1723963;81;26593;-64
2022/07/25 10:37:28;;;;;;;1.72;1.27;;;;;;;28.18;34.16;100496.78;1724730;81;25787;-63
2022/07/25 10:39:55;;;;;;;3.58;1.10;;;;;;;28.24;34.12;100498.83;1722853;81;27484;-63
2022/07/25 10:42:22;;;;;;;2.60;1.20;;;;;;;28.35;34.14;100485.98;1731672;81;25764;-63
2022/07/25 10:44:58;;;;;;;6.03;1.75;;;;;;;28.41;33.99;100485.24;1730302;81;98704;-63
2022/07/25 10:47:27;;;;;;;4.65;1.37;;;;;;;28.56;34.01;100479.25;1727468;81;26315;-63
2022/07/25 10:49:58;;;;;;;8.53;1.87;;;;;;;28.60;33.56;100479.20;1726169;81;26047;-64
2022/07/25 10:52:27;;;;;;;3.08;1.37;;;;;;;28.70;33.51;100474.25;1723816;81;27492;-64
2022/07/25 10:55:00;;;;;;;8.75;1.30;;;;;;;28.82;33.43;100468.27;1729874;81;25755;-65
2022/07/25 10:57:27;;;;;;;3.87;1.47;;;;;;;28.92;32.93;100473.02;1723411;81;25790;-66
2022/07/25 10:59:55;;;;;;;7.65;1.80;;;;;;;28.96;32.91;100470.21;1728048;81;27804;-68
2022/07/25 11:02:23;;;;;;;2.05;1.37;;;;;;;29.00;32.89;100461.89;1725526;81;25767;-66
2022/07/25 11:05:01;;;;;;;3.87;1.30;;;;;;;29.07;32.93;100458.70;1729962;81;29586;-65
2022/07/25 11:07:34;;;;;;;3.95;1.42;;;;;;;29.17;32.93;100455.64;1724765;81;26513;-68
2022/07/25 11:10:00;;;;;;;3.55;1.70;;;;;;;29.23;32.81;100451.59;1727007;81;98726;-65
2022/07/25 11:12:27;;;;;;;1.37;1.27;;;;;;;29.36;32.72;100448.15;1723847;81;26379;-67
2022/07/25 11:15:06;;;;;;;6.37;1.45;;;;;;;29.45;32.67;100447.02;1723050;81;25808;-66
2022/07/25 11:17:34;;;;;;;5.58;1.42;;;;;;;29.56;32.44;100447.90;1724131;81;27437;-66
2022/07/25 11:20:07;;;;;;;6.70;1.40;;;;;;;29.61;32.25;100449.55;1728038;81;26184;-65
2022/07/25 11:22:34;;;;;;;2.17;1.35;;;;;;;29.70;32.03;100439.23;1727213;81;98773;-66
2022/07/25 11:25:03;;;;;;;6.95;1.70;;;;;;;29.82;31.51;100441.81;1725677;81;25749;-66
2022/07/25 11:27:32;;;;;;;9.90;1.30;;;;;;;29.83;31.42;100438.53;1724099;81;98880;-66